Weather at Bruce Mines / Kerr Field

Public forecast

Using degrees Celsius for public forecast. Weather courtesy of forecast.io.

Closest aviation weather report (METAR) to Bruce Mines / Kerr Field

Closest report is Drummond Island Airport, 19.8 nm (36.7 km) S. Retrieved 2021/12/03 04:15 UTC (12 minutes ago):

KDRM 030415Z AUTO 35004KT 10SM OVC032 M02/M06 A2996 RMK AO2 T10191064

Closest aviation forecast (TAF) to Bruce Mines / Kerr Field

Closest forecast is Sault Ste Marie Airport, 34.2 nm (63.3 km) WNW. Retrieved 2021-12-03 02:42 UTC (2 hours ago):

TAF TAF CYAM 030140Z 0302/0314 01010KT P6SM BKN030 TEMPO 0302/0314 P6SM -SHSN BKN020 BECMG 0304/0306 06008KT RMK NXT FCST BY 030800Z